Time;durP1;ratioP1;P1;durP2;ratioP2;P2;SDS_P1;SDS_P2;PMS_P1;PMS_P2;Temp;Humidity;BMP_temperature;BMP_pressure;BME280_temperature;BME280_humidity;BME280_pressure;Samples;Min_cycle;Max_cycle;Signal;HPM_P1;HPM_P2
2023/06/03 00:01:23;;;;;;;;;;;15.60;99.90;;;;;;5049688;28;19920;-74
2023/06/03 00:03:49;;;;;;;;;;;15.70;99.90;;;;;;5049752;28;19908;-74
2023/06/03 00:06:14;;;;;;;;;;;15.60;99.90;;;;;;5049960;28;19915;-74
2023/06/03 00:08:40;;;;;;;;;;;15.70;99.90;;;;;;5049616;28;19905;-75
2023/06/03 00:11:05;;;;;;;;;;;15.70;99.90;;;;;;5049671;28;19908;-75
2023/06/03 00:13:31;;;;;;;;;;;15.70;99.90;;;;;;5049568;28;19947;-74
2023/06/03 00:15:56;;;;;;;;;;;15.70;99.90;;;;;;5049601;28;20292;-75
2023/06/03 00:18:23;;;;;;;;;;;15.70;99.90;;;;;;5049615;28;19905;-75
2023/06/03 00:20:48;;;;;;;;;;;15.70;99.90;;;;;;5048335;28;19924;-74
2023/06/03 00:23:17;;;;;;;;;;;15.70;99.90;;;;;;5050025;28;20891;-76
2023/06/03 00:25:42;;;;;;;;;;;15.70;99.90;;;;;;5049580;28;20380;-75
2023/06/03 00:28:08;;;;;;;;;;;15.80;99.90;;;;;;5052122;28;19946;-75
2023/06/03 00:30:34;;;;;;;;;;;15.90;99.90;;;;;;5053733;28;19904;-75
2023/06/03 00:33:00;;;;;;;;;;;15.90;99.90;;;;;;5053469;28;19904;-75
2023/06/03 00:35:25;;;;;;;;;;;15.90;99.90;;;;;;5053698;28;20369;-74
2023/06/03 00:37:51;;;;;;;;;;;15.80;99.90;;;;;;5053628;28;19912;-75
2023/06/03 00:40:17;;;;;;;;;;;15.80;99.90;;;;;;5052054;28;19912;-74
2023/06/03 00:42:42;;;;;;;;;;;15.80;99.90;;;;;;5053663;28;19909;-74
2023/06/03 00:45:08;;;;;;;;;;;15.70;99.90;;;;;;5053307;28;20373;-74
2023/06/03 00:47:34;;;;;;;;;;;15.60;99.90;;;;;;5053390;28;20349;-74
2023/06/03 00:50:00;;;;;;;;;;;15.50;99.90;;;;;;5053287;28;19909;-74
2023/06/03 00:52:26;;;;;;;;;;;15.60;99.90;;;;;;5053351;28;19915;-73
2023/06/03 00:54:52;;;;;;;;;;;15.40;99.90;;;;;;5052382;28;19908;-75
2023/06/03 00:57:20;;;;;;;;;;;15.40;99.90;;;;;;5052858;28;19977;-75
2023/06/03 00:59:45;;;;;;;;;;;15.30;99.90;;;;;;5053217;28;19924;-75
2023/06/03 01:02:12;;;;;;;;;;;15.30;99.90;;;;;;5053133;28;19904;-73
2023/06/03 01:04:38;;;;;;;;;;;15.30;99.90;;;;;;5053157;28;19943;-74
2023/06/03 01:07:06;;;;;;;;;;;15.20;99.90;;;;;;5052773;28;19951;-75
2023/06/03 01:09:50;;;;;;;;;;;15.20;99.90;;;;;;5053041;28;20285;-73
2023/06/03 01:12:15;;;;;;;;;;;15.20;99.90;;;;;;5085411;28;19935;-75
2023/06/03 01:14:44;;;;;;;;;;;15.10;99.90;;;;;;5053073;28;19905;-75
2023/06/03 01:17:11;;;;;;;;;;;15.10;99.90;;;;;;5084678;28;19912;-75
2023/06/03 01:19:48;;;;;;;;;;;15.10;99.90;;;;;;5052787;28;19916;-75
2023/06/03 01:22:18;;;;;;;;;;;15.10;99.90;;;;;;5052592;28;19940;-74
2023/06/03 01:24:44;;;;;;;;;;;15.10;99.90;;;;;;5052665;28;19911;-74
2023/06/03 01:27:10;;;;;;;;;;;15.10;99.90;;;;;;5051234;28;19905;-75
2023/06/03 01:29:36;;;;;;;;;;;15.10;99.90;;;;;;5052446;28;20506;-75
2023/06/03 01:32:02;;;;;;;;;;;15.10;99.90;;;;;;5051444;28;19930;-75
2023/06/03 01:34:28;;;;;;;;;;;15.10;99.90;;;;;;5052601;28;20381;-75
2023/06/03 01:36:55;;;;;;;;;;;15.00;99.90;;;;;;5052383;28;19904;-74
2023/06/03 01:39:20;;;;;;;;;;;15.00;99.90;;;;;;5051132;28;19923;-74
2023/06/03 01:41:46;;;;;;;;;;;14.90;99.90;;;;;;5052412;28;19905;-75
2023/06/03 01:44:12;;;;;;;;;;;14.90;99.90;;;;;;5052166;28;19911;-76
2023/06/03 01:46:37;;;;;;;;;;;14.80;99.90;;;;;;5051171;28;20507;-74
2023/06/03 01:49:06;;;;;;;;;;;14.90;99.90;;;;;;5084255;28;20368;-75
2023/06/03 01:51:31;;;;;;;;;;;14.90;99.90;;;;;;5050688;28;20580;-74
2023/06/03 01:53:57;;;;;;;;;;;14.90;99.90;;;;;;5051912;28;19988;-74
2023/06/03 01:56:22;;;;;;;;;;;14.90;99.90;;;;;;5052071;28;20007;-75
2023/06/03 01:58:48;;;;;;;;;;;15.00;99.90;;;;;;5051483;28;19999;-74
2023/06/03 02:01:14;;;;;;;;;;;15.00;99.90;;;;;;5051770;28;20008;-76
2023/06/03 02:03:39;;;;;;;;;;;15.00;99.90;;;;;;5052199;28;19944;-74
2023/06/03 02:06:05;;;;;;;;;;;15.00;99.90;;;;;;5052019;28;19958;-74
2023/06/03 02:08:31;;;;;;;;;;;14.90;99.90;;;;;;5051999;28;20003;-75
2023/06/03 02:10:56;;;;;;;;;;;14.90;99.90;;;;;;5052032;28;20326;-76
2023/06/03 02:13:22;;;;;;;;;;;14.80;99.90;;;;;;5051672;28;19955;-75
2023/06/03 02:15:47;;;;;;;;;;;14.80;99.90;;;;;;5051860;28;19905;-75
2023/06/03 02:18:13;;;;;;;;;;;14.80;99.90;;;;;;5051651;28;19905;-75
2023/06/03 02:20:39;;;;;;;;;;;14.80;99.90;;;;;;5051507;28;19970;-76
2023/06/03 02:23:05;;;;;;;;;;;14.80;99.90;;;;;;5051482;28;20050;-76
2023/06/03 02:25:32;;;;;;;;;;;14.90;99.90;;;;;;5051697;28;19905;-75
2023/06/03 02:27:58;;;;;;;;;;;14.90;99.90;;;;;;5050180;28;20371;-75
2023/06/03 02:30:25;;;;;;;;;;;14.90;99.90;;;;;;5051563;28;19909;-74
2023/06/03 02:32:50;;;;;;;;;;;15.00;99.90;;;;;;5051574;28;19915;-75
2023/06/03 02:35:16;;;;;;;;;;;15.10;99.90;;;;;;5051252;28;20331;-75
2023/06/03 02:37:41;;;;;;;;;;;15.10;99.90;;;;;;5083498;28;19986;-75
2023/06/03 02:40:09;;;;;;;;;;;15.20;99.90;;;;;;5051222;28;20051;-75
2023/06/03 02:42:36;;;;;;;;;;;15.20;99.90;;;;;;5051215;28;19909;-75
2023/06/03 02:45:02;;;;;;;;;;;15.30;99.90;;;;;;5051174;28;19911;-75
2023/06/03 02:47:27;;;;;;;;;;;15.30;99.90;;;;;;5051152;28;19905;-75
2023/06/03 02:49:53;;;;;;;;;;;15.40;99.90;;;;;;5050885;28;19905;-75
2023/06/03 02:52:19;;;;;;;;;;;15.40;99.90;;;;;;5051054;28;19923;-75
2023/06/03 02:54:45;;;;;;;;;;;15.40;99.90;;;;;;5051234;28;20428;-75
2023/06/03 02:57:11;;;;;;;;;;;15.40;99.90;;;;;;5050554;28;20003;-74
2023/06/03 02:59:36;;;;;;;;;;;15.50;99.90;;;;;;5050839;28;19917;-75
2023/06/03 03:02:02;;;;;;;;;;;15.50;99.90;;;;;;5050943;28;20361;-75
2023/06/03 03:04:33;;;;;;;;;;;15.50;99.90;;;;;;5049784;28;20620;-75
2023/06/03 03:06:59;;;;;;;;;;;15.50;99.90;;;;;;5050805;28;20373;-76
2023/06/03 03:09:25;;;;;;;;;;;15.40;99.90;;;;;;5050571;28;19995;-76
2023/06/03 03:11:50;;;;;;;;;;;15.30;99.90;;;;;;5050641;28;19909;-75
2023/06/03 03:14:18;;;;;;;;;;;15.30;99.90;;;;;;5050655;28;20372;-75
2023/06/03 03:16:43;;;;;;;;;;;15.20;99.90;;;;;;5050906;28;19905;-75
2023/06/03 03:19:09;;;;;;;;;;;15.30;99.90;;;;;;5050312;28;19987;-75
2023/06/03 03:21:35;;;;;;;;;;;15.20;99.90;;;;;;5050498;28;19905;-75
2023/06/03 03:24:01;;;;;;;;;;;15.30;99.90;;;;;;5050476;28;20380;-76
2023/06/03 03:26:27;;;;;;;;;;;15.30;99.90;;;;;;5050488;28;19908;-75
2023/06/03 03:28:53;;;;;;;;;;;15.30;99.90;;;;;;5049225;28;19908;-76
2023/06/03 03:31:20;;;;;;;;;;;15.40;99.90;;;;;;5048826;28;19912;-76
2023/06/03 03:33:47;;;;;;;;;;;15.40;99.90;;;;;;5050347;28;20003;-76
2023/06/03 03:36:18;;;;;;;;;;;15.50;99.90;;;;;;5049053;28;20367;-76
2023/06/03 03:38:43;;;;;;;;;;;15.50;99.90;;;;;;5050119;28;19904;-76
2023/06/03 03:41:09;;;;;;;;;;;15.50;99.90;;;;;;5050098;28;20273;-76
2023/06/03 03:43:35;;;;;;;;;;;15.50;99.90;;;;;;5050339;28;19908;-75
2023/06/03 03:46:00;;;;;;;;;;;15.60;99.90;;;;;;5050298;28;20323;-75
2023/06/03 03:48:27;;;;;;;;;;;15.60;99.90;;;;;;5050209;28;19954;-75
2023/06/03 03:50:53;;;;;;;;;;;15.70;99.90;;;;;;5049989;28;19913;-76
2023/06/03 03:53:21;;;;;;;;;;;15.70;99.90;;;;;;5049955;28;20394;-76
2023/06/03 03:55:53;;;;;;;;;;;15.70;99.90;;;;;;5050000;28;19963;-76
2023/06/03 03:58:18;;;;;;;;;;;15.80;99.90;;;;;;5049725;28;19924;-75
2023/06/03 04:00:44;;;;;;;;;;;15.70;99.90;;;;;;5049693;28;20130;-76
2023/06/03 04:03:12;;;;;;;;;;;15.80;99.90;;;;;;5049131;28;19954;-75
2023/06/03 04:05:37;;;;;;;;;;;15.80;99.90;;;;;;5049792;28;19909;-74
2023/06/03 04:08:03;;;;;;;;;;;15.90;99.90;;;;;;5049740;28;20391;-75
2023/06/03 04:10:29;;;;;;;;;;;15.90;99.90;;;;;;5049882;28;19920;-75
2023/06/03 04:12:54;;;;;;;;;;;15.90;99.90;;;;;;5049914;28;20440;-75
2023/06/03 04:15:24;;;;;;;;;;;15.90;99.90;;;;;;5049704;28;19944;-75
2023/06/03 04:17:50;;;;;;;;;;;16.00;99.90;;;;;;5048318;28;19998;-75
2023/06/03 04:20:28;;;;;;;;;;;16.00;99.90;;;;;;5049386;28;19956;-75
2023/06/03 04:22:53;;;;;;;;;;;16.00;99.90;;;;;;5049627;28;19917;-75
2023/06/03 04:25:19;;;;;;;;;;;15.90;99.90;;;;;;5048259;28;19917;-75
2023/06/03 04:27:44;;;;;;;;;;;15.80;99.90;;;;;;5049511;28;19909;-74
2023/06/03 04:30:10;;;;;;;;;;;15.80;99.90;;;;;;5049660;28;19915;-75
2023/06/03 04:32:36;;;;;;;;;;;15.80;99.90;;;;;;5049565;28;19905;-76
2023/06/03 04:35:02;;;;;;;;;;;15.80;99.90;;;;;;5049544;28;19952;-74
2023/06/03 04:37:27;;;;;;;;;;;15.90;99.90;;;;;;5049714;28;19990;-75
2023/06/03 04:39:53;;;;;;;;;;;15.90;99.90;;;;;;5049532;28;20035;-75
2023/06/03 04:42:19;;;;;;;;;;;16.00;99.90;;;;;;5049341;28;19912;-75
2023/06/03 04:44:45;;;;;;;;;;;16.20;99.90;;;;;;5049575;28;19992;-75
2023/06/03 04:47:11;;;;;;;;;;;16.40;99.90;;;;;;5049213;28;20019;-75
2023/06/03 04:49:37;;;;;;;;;;;16.60;99.90;;;;;;5049518;28;19905;-76
2023/06/03 04:52:03;;;;;;;;;;;16.80;99.90;;;;;;5049479;28;19919;-75
2023/06/03 04:54:29;;;;;;;;;;;16.90;99.90;;;;;;5049333;28;19909;-76
2023/06/03 04:56:54;;;;;;;;;;;16.90;99.90;;;;;;5048918;28;19978;-76
2023/06/03 04:59:20;;;;;;;;;;;17.00;99.10;;;;;;5047781;28;20035;-75
2023/06/03 05:01:48;;;;;;;;;;;17.00;99.40;;;;;;5047326;28;20394;-76
2023/06/03 05:04:14;;;;;;;;;;;17.20;99.90;;;;;;5047777;28;20336;-76
2023/06/03 05:06:39;;;;;;;;;;;17.30;99.00;;;;;;5047753;28;19905;-75
2023/06/03 05:09:05;;;;;;;;;;;17.40;98.70;;;;;;5047699;28;20377;-75
2023/06/03 05:11:31;;;;;;;;;;;17.60;97.90;;;;;;5049214;28;19905;-75
2023/06/03 05:13:57;;;;;;;;;;;17.70;97.40;;;;;;5051017;28;19904;-75
2023/06/03 05:16:23;;;;;;;;;;;17.80;99.10;;;;;;5052690;28;19955;-75
2023/06/03 05:18:48;;;;;;;;;;;17.90;97.30;;;;;;5051482;28;19909;-76
2023/06/03 05:21:19;;;;;;;;;;;18.10;97.30;;;;;;5051198;28;20294;-76
2023/06/03 05:23:44;;;;;;;;;;;18.20;96.80;;;;;;5052801;28;19905;-75
2023/06/03 05:26:10;;;;;;;;;;;18.20;96.90;;;;;;5052668;28;19912;-75
2023/06/03 05:28:35;;;;;;;;;;;18.40;93.00;;;;;;5052432;28;19939;-76
2023/06/03 05:31:01;;;;;;;;;;;18.30;91.80;;;;;;5052185;28;20304;-76
2023/06/03 05:33:27;;;;;;;;;;;18.40;93.80;;;;;;5051434;28;20395;-75
2023/06/03 05:35:53;;;;;;;;;;;18.50;93.50;;;;;;5052539;28;20383;-75
2023/06/03 05:38:19;;;;;;;;;;;18.60;92.40;;;;;;5051170;28;19913;-77
2023/06/03 05:40:44;;;;;;;;;;;18.60;90.40;;;;;;5052252;28;19913;-75
2023/06/03 05:43:10;;;;;;;;;;;18.60;80.00;;;;;;5052215;28;19909;-76
2023/06/03 05:45:35;;;;;;;;;;;18.30;79.20;;;;;;5051055;28;19905;-77
2023/06/03 05:48:01;;;;;;;;;;;18.50;82.60;;;;;;5050878;28;19912;-77
2023/06/03 05:50:26;;;;;;;;;;;18.60;74.10;;;;;;5051013;28;19905;-76
2023/06/03 05:52:52;;;;;;;;;;;18.60;72.50;;;;;;5052282;28;20284;-77
2023/06/03 05:55:17;;;;;;;;;;;18.70;67.60;;;;;;5050731;28;19904;-75
2023/06/03 05:57:43;;;;;;;;;;;18.60;67.20;;;;;;5050591;28;20380;-77
2023/06/03 06:00:09;;;;;;;;;;;18.60;69.90;;;;;;5052124;28;19923;-76
2023/06/03 06:02:34;;;;;;;;;;;18.50;72.40;;;;;;5050479;28;20331;-76
2023/06/03 06:05:00;;;;;;;;;;;18.40;69.70;;;;;;5050506;28;20436;-76
2023/06/03 06:07:26;;;;;;;;;;;18.50;63.30;;;;;;5051802;28;20011;-77
2023/06/03 06:09:51;;;;;;;;;;;18.50;58.40;;;;;;5051919;28;20281;-76
2023/06/03 06:12:17;;;;;;;;;;;18.40;56.80;;;;;;5051410;28;19924;-77
2023/06/03 06:14:42;;;;;;;;;;;18.40;58.40;;;;;;5050399;28;19909;-76
2023/06/03 06:17:08;;;;;;;;;;;18.50;59.90;;;;;;5049972;28;19908;-77
2023/06/03 06:19:36;;;;;;;;;;;18.70;60.90;;;;;;5083944;28;19932;-77
2023/06/03 06:22:02;;;;;;;;;;;19.50;60.50;;;;;;5051706;28;19916;-75
2023/06/03 06:24:27;;;;;;;;;;;20.60;52.90;;;;;;5049613;28;19909;-75
2023/06/03 06:26:53;;;;;;;;;;;21.30;49.70;;;;;;5049929;28;19908;-74
2023/06/03 06:29:19;;;;;;;;;;;21.10;49.90;;;;;;5051402;28;19913;-75
2023/06/03 06:31:45;;;;;;;;;;;21.10;50.60;;;;;;5051379;28;19909;-74
2023/06/03 06:34:12;;;;;;;;;;;21.10;47.80;;;;;;5051634;28;20440;-74
2023/06/03 06:36:40;;;;;;;;;;;21.40;47.10;;;;;;5050059;28;19990;-75
2023/06/03 06:39:22;;;;;;;;;;;21.70;46.70;;;;;;5051141;28;20387;-74
2023/06/03 06:41:47;;;;;;;;;;;22.60;44.60;;;;;;5051078;28;19935;-74
2023/06/03 06:44:13;;;;;;;;;;;23.30;40.30;;;;;;5051283;28;19909;-74
2023/06/03 06:46:38;;;;;;;;;;;23.20;40.20;;;;;;5051080;28;20179;-74
2023/06/03 06:49:04;;;;;;;;;;;23.70;38.80;;;;;;5050891;28;19915;-74
2023/06/03 06:51:30;;;;;;;;;;;24.70;38.70;;;;;;5051104;28;19909;-74
2023/06/03 06:53:58;;;;;;;;;;;25.30;36.00;;;;;;5049687;28;19916;-74
2023/06/03 06:56:23;;;;;;;;;;;25.40;35.40;;;;;;5051027;28;19912;-75
2023/06/03 06:58:49;;;;;;;;;;;25.20;36.10;;;;;;5050693;28;19966;-75
2023/06/03 07:01:14;;;;;;;;;;;24.80;35.20;;;;;;5050619;28;19916;-75
2023/06/03 07:03:40;;;;;;;;;;;24.50;37.30;;;;;;5049362;28;20277;-74
2023/06/03 07:06:05;;;;;;;;;;;23.40;37.50;;;;;;5049461;28;19966;-74
2023/06/03 07:08:31;;;;;;;;;;;22.50;39.30;;;;;;5050686;28;20308;-74
2023/06/03 07:10:58;;;;;;;;;;;22.30;38.20;;;;;;5050295;28;19951;-74
2023/06/03 07:13:24;;;;;;;;;;;22.60;38.80;;;;;;5050380;28;19962;-74
2023/06/03 07:15:50;;;;;;;;;;;22.90;36.90;;;;;;5050660;28;19913;-75
2023/06/03 07:18:16;;;;;;;;;;;23.50;38.90;;;;;;5050296;28;19915;-75
2023/06/03 07:20:43;;;;;;;;;;;24.40;37.10;;;;;;5050407;28;19916;-74
2023/06/03 07:23:29;;;;;;;;;;;25.30;34.80;;;;;;5050239;28;19909;-75
2023/06/03 07:25:55;;;;;;;;;;;25.80;34.90;;;;;;5048588;28;20312;-74
2023/06/03 07:28:31;;;;;;;;;;;26.00;36.50;;;;;;5050456;28;19915;-75
2023/06/03 07:30:58;;;;;;;;;;;27.00;34.90;;;;;;5050072;28;19955;-75
2023/06/03 07:33:32;;;;;;;;;;;27.10;35.80;;;;;;5050188;28;19904;-76
2023/06/03 07:35:59;;;;;;;;;;;26.80;34.30;;;;;;5049998;28;19948;-74
2023/06/03 07:38:34;;;;;;;;;;;26.90;35.30;;;;;;5049262;28;19908;-75
2023/06/03 07:41:00;;;;;;;;;;;26.70;36.10;;;;;;5050139;28;19920;-75
2023/06/03 07:43:27;;;;;;;;;;;27.30;37.70;;;;;;5048623;28;20412;-75
2023/06/03 07:45:53;;;;;;;;;;;27.00;36.20;;;;;;5050109;28;19904;-75
2023/06/03 07:48:19;;;;;;;;;;;27.60;36.70;;;;;;5049845;28;20298;-75
2023/06/03 07:50:45;;;;;;;;;;;27.60;34.60;;;;;;5050126;28;19927;-75
2023/06/03 07:53:14;;;;;;;;;;;27.70;36.90;;;;;;5049701;28;19940;-75
2023/06/03 07:55:42;;;;;;;;;;;28.00;38.20;;;;;;5050152;28;19935;-75
2023/06/03 07:58:09;;;;;;;;;;;28.50;36.60;;;;;;5049970;28;20007;-76
2023/06/03 08:00:35;;;;;;;;;;;28.80;36.50;;;;;;5049679;28;19924;-74
2023/06/03 08:03:01;;;;;;;;;;;29.10;37.90;;;;;;5048362;28;19908;-74
2023/06/03 08:05:31;;;;;;;;;;;29.30;35.50;;;;;;5048337;28;19962;-75
2023/06/03 08:07:57;;;;;;;;;;;29.20;34.70;;;;;;5049635;28;20697;-74
2023/06/03 08:10:24;;;;;;;;;;;29.10;33.00;;;;;;5049786;28;19909;-75
2023/06/03 08:12:49;;;;;;;;;;;29.00;34.20;;;;;;5049517;28;19913;-76
2023/06/03 08:15:25;;;;;;;;;;;29.20;32.70;;;;;;5049533;28;19915;-74
2023/06/03 08:17:50;;;;;;;;;;;29.00;32.60;;;;;;5049514;28;19999;-74
2023/06/03 08:20:16;;;;;;;;;;;28.80;31.70;;;;;;5049187;28;19999;-74
2023/06/03 08:22:43;;;;;;;;;;;28.40;31.20;;;;;;5049604;28;19912;-76
2023/06/03 08:25:08;;;;;;;;;;;28.30;31.10;;;;;;5049330;28;19904;-76
2023/06/03 08:27:35;;;;;;;;;;;28.00;30.00;;;;;;5048026;28;19915;-75
2023/06/03 08:30:03;;;;;;;;;;;28.10;31.70;;;;;;5049350;28;20384;-76
2023/06/03 08:32:35;;;;;;;;;;;28.50;31.30;;;;;;5081642;28;19909;-74
2023/06/03 08:35:01;;;;;;;;;;;28.20;29.90;;;;;;5049594;28;20415;-75
2023/06/03 08:37:27;;;;;;;;;;;28.70;29.50;;;;;;5047994;28;19999;-75
2023/06/03 08:39:53;;;;;;;;;;;27.90;30.60;;;;;;5049286;28;19939;-75
2023/06/03 08:42:22;;;;;;;;;;;28.20;30.10;;;;;;5047881;28;20361;-75
2023/06/03 08:44:52;;;;;;;;;;;28.50;32.60;;;;;;5048052;28;19905;-75
2023/06/03 08:47:37;;;;;;;;;;;29.00;31.00;;;;;;5049185;28;19936;-75
2023/06/03 08:50:06;;;;;;;;;;;29.20;28.80;;;;;;5053259;28;19978;-76
2023/06/03 08:52:37;;;;;;;;;;;29.20;28.90;;;;;;5053304;28;19909;-74
2023/06/03 08:55:04;;;;;;;;;;;29.10;28.60;;;;;;5053113;28;19995;-75
2023/06/03 08:57:40;;;;;;;;;;;29.00;29.80;;;;;;5053010;28;19931;-75
2023/06/03 09:00:06;;;;;;;;;;;29.20;29.60;;;;;;5053087;28;20435;-75
2023/06/03 09:02:32;;;;;;;;;;;29.70;29.20;;;;;;5051703;28;19909;-74
2023/06/03 09:05:01;;;;;;;;;;;30.00;30.00;;;;;;5085156;28;19912;-75
2023/06/03 09:07:27;;;;;;;;;;;30.40;29.00;;;;;;5052992;28;19913;-75
2023/06/03 09:09:54;;;;;;;;;;;30.10;29.40;;;;;;5052984;28;19908;-74
2023/06/03 09:12:20;;;;;;;;;;;30.10;28.90;;;;;;5052810;28;19928;-76
2023/06/03 09:14:46;;;;;;;;;;;30.20;28.90;;;;;;5051558;28;19904;-76
2023/06/03 09:17:11;;;;;;;;;;;30.40;30.00;;;;;;5052753;28;19915;-75
2023/06/03 09:19:37;;;;;;;;;;;30.50;30.10;;;;;;5052712;28;19913;-75
2023/06/03 09:22:03;;;;;;;;;;;30.70;28.10;;;;;;5052720;28;19944;-75
2023/06/03 09:24:28;;;;;;;;;;;30.90;28.30;;;;;;5052653;28;19904;-75
2023/06/03 09:26:54;;;;;;;;;;;30.70;28.00;;;;;;5052599;28;19940;-75
2023/06/03 09:29:20;;;;;;;;;;;31.10;28.40;;;;;;5052763;28;19909;-75
2023/06/03 09:31:47;;;;;;;;;;;31.00;28.90;;;;;;5052529;28;19919;-74
2023/06/03 09:34:13;;;;;;;;;;;31.10;27.90;;;;;;5051082;28;19916;-75
2023/06/03 09:36:45;;;;;;;;;;;30.90;28.90;;;;;;5051113;28;19908;-75
2023/06/03 09:39:16;;;;;;;;;;;30.80;29.20;;;;;;5050724;28;20301;-75
2023/06/03 09:41:42;;;;;;;;;;;30.80;27.90;;;;;;5052290;28;20020;-75
2023/06/03 09:44:10;;;;;;;;;;;30.70;28.00;;;;;;5052314;28;20002;-76
2023/06/03 09:46:36;;;;;;;;;;;30.40;27.50;;;;;;5052297;28;20375;-75
2023/06/03 09:49:14;;;;;;;;;;;30.30;27.40;;;;;;5052243;28;19909;-75
2023/06/03 09:51:41;;;;;;;;;;;29.90;27.20;;;;;;5052180;28;19913;-76
2023/06/03 09:54:11;;;;;;;;;;;29.20;29.10;;;;;;5052588;28;20285;-74
2023/06/03 09:56:37;;;;;;;;;;;29.00;29.20;;;;;;5052227;28;19944;-75
2023/06/03 09:59:13;;;;;;;;;;;29.00;29.40;;;;;;5051879;28;19968;-73
2023/06/03 10:01:39;;;;;;;;;;;28.50;28.30;;;;;;5051312;28;20003;-74
2023/06/03 10:04:04;;;;;;;;;;;27.80;29.00;;;;;;5052108;28;19951;-73
2023/06/03 10:06:30;;;;;;;;;;;27.10;30.80;;;;;;5052122;28;19912;-73
2023/06/03 10:08:56;;;;;;;;;;;26.90;30.80;;;;;;5051863;28;19911;-74
2023/06/03 10:11:23;;;;;;;;;;;26.70;31.30;;;;;;5051794;28;19931;-75
2023/06/03 10:14:00;;;;;;;;;;;26.60;31.80;;;;;;5051849;28;19908;-73
2023/06/03 10:16:26;;;;;;;;;;;26.70;29.60;;;;;;5051707;28;19927;-75
2023/06/03 10:18:52;;;;;;;;;;;26.40;29.10;;;;;;5051851;28;20361;-74
2023/06/03 10:21:19;;;;;;;;;;;26.00;31.10;;;;;;5051440;28;19913;-74
2023/06/03 10:23:45;;;;;;;;;;;25.70;29.60;;;;;;5051503;28;19987;-73
2023/06/03 10:26:11;;;;;;;;;;;25.20;30.50;;;;;;5051487;28;20339;-73
2023/06/03 10:28:37;;;;;;;;;;;25.20;30.10;;;;;;5051447;28;19909;-73
2023/06/03 10:31:03;;;;;;;;;;;25.00;28.90;;;;;;5051354;28;20290;-73
2023/06/03 10:33:29;;;;;;;;;;;24.70;30.60;;;;;;5051946;28;20283;-73
2023/06/03 10:35:56;;;;;;;;;;;24.50;30.00;;;;;;5051505;28;19908;-73
2023/06/03 10:38:21;;;;;;;;;;;24.40;32.40;;;;;;5051286;28;20368;-74
2023/06/03 10:40:48;;;;;;;;;;;24.10;29.30;;;;;;5051202;28;19923;-73
2023/06/03 10:43:13;;;;;;;;;;;24.00;31.70;;;;;;5051126;28;20003;-74
2023/06/03 10:45:40;;;;;;;;;;;24.10;31.90;;;;;;5051139;28;20404;-73
2023/06/03 10:48:08;;;;;;;;;;;23.80;32.60;;;;;;5051168;28;19912;-75
2023/06/03 10:50:48;;;;;;;;;;;23.80;32.90;;;;;;5051037;28;19905;-74
2023/06/03 10:53:32;;;;;;;;;;;23.70;31.30;;;;;;5050814;28;20027;-74
2023/06/03 10:56:03;;;;;;;;;;;23.70;32.40;;;;;;5050859;28;20034;-72
2023/06/03 10:58:29;;;;;;;;;;;23.70;33.50;;;;;;5050659;28;19928;-73
2023/06/03 11:01:01;;;;;;;;;;;23.80;34.00;;;;;;5050774;28;20324;-74
2023/06/03 11:03:28;;;;;;;;;;;24.00;32.70;;;;;;5049422;28;19991;-75
2023/06/03 11:06:13;;;;;;;;;;;24.10;32.60;;;;;;5050669;28;19909;-73
2023/06/03 11:08:59;;;;;;;;;;;24.10;32.60;;;;;;5049032;28;20121;-73
2023/06/03 11:11:40;;;;;;;;;;;24.00;29.90;;;;;;5050517;28;19916;-72
2023/06/03 11:14:06;;;;;;;;;;;23.60;31.90;;;;;;5050733;28;19908;-74
2023/06/03 11:16:52;;;;;;;;;;;23.50;32.70;;;;;;5050637;28;20380;-73
2023/06/03 11:19:35;;;;;;;;;;;23.30;32.50;;;;;;5042636;28;19905;-73
2023/06/03 11:22:01;;;;;;;;;;;23.40;33.20;;;;;;5050668;28;19913;-73
2023/06/03 11:24:42;;;;;;;;;;;23.40;33.30;;;;;;5048901;28;19905;-73
2023/06/03 11:27:14;;;;;;;;;;;23.30;31.00;;;;;;5050207;28;20007;-73
2023/06/03 11:30:00;;;;;;;;;;;23.10;31.40;;;;;;5050186;28;19931;-73
2023/06/03 11:32:28;;;;;;;;;;;22.90;29.00;;;;;;5049872;28;19905;-74
2023/06/03 11:35:02;;;;;;;;;;;22.90;31.30;;;;;;5050229;28;19999;-73
2023/06/03 11:37:47;;;;;;;;;;;23.00;32.10;;;;;;5050238;28;19908;-73
2023/06/03 11:40:17;;;;;;;;;;;23.30;32.60;;;;;;5042477;28;20361;-73
2023/06/03 11:42:49;;;;;;;;;;;23.20;31.10;;;;;;5050045;28;19905;-74
2023/06/03 11:45:28;;;;;;;;;;;23.20;31.10;;;;;;5082237;28;19919;-74
2023/06/03 11:47:55;;;;;;;;;;;23.10;30.60;;;;;;5050088;28;19905;-73
2023/06/03 11:50:24;;;;;;;;;;;23.00;31.00;;;;;;5050058;28;19908;-73
2023/06/03 11:52:50;;;;;;;;;;;23.00;32.30;;;;;;5046205;28;20384;-73
2023/06/03 11:55:26;;;;;;;;;;;23.00;31.20;;;;;;5048460;28;19905;-75
2023/06/03 11:57:52;;;;;;;;;;;22.90;32.70;;;;;;5049685;28;19916;-74
2023/06/03 12:00:18;;;;;;;;;;;22.80;31.60;;;;;;5049849;28;19923;-72
2023/06/03 12:02:47;;;;;;;;;;;22.70;31.40;;;;;;5048861;28;19911;-74
2023/06/03 12:05:13;;;;;;;;;;;22.60;34.00;;;;;;5081685;28;20384;-74
2023/06/03 12:07:38;;;;;;;;;;;22.70;32.00;;;;;;5049653;28;19963;-74
2023/06/03 12:10:04;;;;;;;;;;;22.60;31.30;;;;;;5048515;28;20277;-74
2023/06/03 12:12:30;;;;;;;;;;;22.60;31.50;;;;;;5049576;28;19912;-73
2023/06/03 12:15:03;;;;;;;;;;;22.50;32.50;;;;;;5049591;28;19996;-75
2023/06/03 12:17:28;;;;;;;;;;;22.50;30.60;;;;;;5049504;28;19912;-75
2023/06/03 12:19:54;;;;;;;;;;;22.60;30.00;;;;;;5049413;28;19924;-74
2023/06/03 12:22:21;;;;;;;;;;;22.40;31.20;;;;;;5048115;28;19917;-74
2023/06/03 12:24:47;;;;;;;;;;;22.50;30.70;;;;;;5049162;28;19927;-74
2023/06/03 12:27:16;;;;;;;;;;;22.40;32.60;;;;;;5049310;28;20432;-74
2023/06/03 12:29:47;;;;;;;;;;;22.20;30.20;;;;;;5049577;28;19905;-75
2023/06/03 12:32:32;;;;;;;;;;;22.30;32.10;;;;;;5049728;28;19917;-73
2023/06/03 12:35:11;;;;;;;;;;;22.50;31.40;;;;;;5048147;28;19958;-75
2023/06/03 12:37:38;;;;;;;;;;;22.70;32.00;;;;;;5049545;28;20456;-74
2023/06/03 12:40:04;;;;;;;;;;;22.80;30.20;;;;;;5048120;28;20312;-75
2023/06/03 12:42:36;;;;;;;;;;;23.00;32.50;;;;;;5049428;28;19913;-74
2023/06/03 12:45:02;;;;;;;;;;;23.00;31.50;;;;;;5047672;28;19911;-74
2023/06/03 12:47:28;;;;;;;;;;;22.90;32.30;;;;;;5049447;28;20319;-74
2023/06/03 12:50:04;;;;;;;;;;;22.80;32.00;;;;;;5049286;28;19905;-73
2023/06/03 12:52:34;;;;;;;;;;;22.80;32.30;;;;;;5049521;28;19909;-73
2023/06/03 12:55:00;;;;;;;;;;;22.80;31.50;;;;;;5047672;28;20202;-74
2023/06/03 12:57:25;;;;;;;;;;;22.70;31.40;;;;;;5048993;28;19916;-73
2023/06/03 13:00:08;;;;;;;;;;;22.60;30.10;;;;;;5049242;28;19943;-73
2023/06/03 13:02:38;;;;;;;;;;;22.60;29.20;;;;;;5049269;28;19967;-73
2023/06/03 13:05:04;;;;;;;;;;;22.70;30.20;;;;;;5049168;28;19912;-73
2023/06/03 13:07:30;;;;;;;;;;;22.60;30.00;;;;;;5049233;28;19913;-73
2023/06/03 13:09:59;;;;;;;;;;;22.50;29.10;;;;;;5049106;28;19909;-74
2023/06/03 13:12:25;;;;;;;;;;;22.40;29.50;;;;;;5049431;28;19915;-75
2023/06/03 13:14:51;;;;;;;;;;;22.40;29.30;;;;;;5049134;28;19905;-75
2023/06/03 13:17:17;;;;;;;;;;;22.30;28.60;;;;;;5048914;28;19904;-75
2023/06/03 13:19:43;;;;;;;;;;;22.40;29.80;;;;;;5049044;28;20722;-75
2023/06/03 13:22:08;;;;;;;;;;;22.50;30.80;;;;;;5049160;28;19905;-75
2023/06/03 13:24:34;;;;;;;;;;;22.50;31.40;;;;;;5048924;28;19913;-73
2023/06/03 13:27:01;;;;;;;;;;;22.50;30.00;;;;;;5047609;28;20289;-73
2023/06/03 13:29:27;;;;;;;;;;;22.50;31.30;;;;;;5047665;28;19916;-73
2023/06/03 13:31:52;;;;;;;;;;;22.50;30.90;;;;;;5048911;28;19909;-73
2023/06/03 13:34:18;;;;;;;;;;;22.30;29.70;;;;;;5048880;28;19908;-73
2023/06/03 13:36:43;;;;;;;;;;;22.30;29.80;;;;;;5051878;28;19940;-72
2023/06/03 13:39:09;;;;;;;;;;;22.30;30.80;;;;;;5052385;28;20409;-74
2023/06/03 13:41:35;;;;;;;;;;;22.30;31.10;;;;;;5052425;28;20403;-71
2023/06/03 13:44:01;;;;;;;;;;;22.40;30.10;;;;;;5051010;28;19915;-73
2023/06/03 13:46:26;;;;;;;;;;;22.40;31.30;;;;;;5052300;28;19908;-74
2023/06/03 13:48:52;;;;;;;;;;;22.40;29.60;;;;;;5052236;28;19909;-72
2023/06/03 13:51:17;;;;;;;;;;;22.50;30.80;;;;;;5052088;28;20292;-73
2023/06/03 13:53:43;;;;;;;;;;;22.50;30.50;;;;;;5052256;28;20002;-74
2023/06/03 13:56:08;;;;;;;;;;;22.40;30.40;;;;;;5052068;28;20115;-73
2023/06/03 13:58:34;;;;;;;;;;;22.40;31.80;;;;;;5051946;28;19916;-73
2023/06/03 14:01:00;;;;;;;;;;;22.30;32.50;;;;;;5052088;28;20042;-72
2023/06/03 14:03:25;;;;;;;;;;;22.30;34.30;;;;;;5051882;28;19905;-72
2023/06/03 14:05:51;;;;;;;;;;;22.30;32.70;;;;;;5051901;28;20436;-73
2023/06/03 14:08:16;;;;;;;;;;;22.40;32.70;;;;;;5051794;28;19905;-73
2023/06/03 14:10:42;;;;;;;;;;;22.40;33.70;;;;;;5051839;28;19905;-73
2023/06/03 14:13:08;;;;;;;;;;;22.40;32.90;;;;;;5051543;28;19905;-74
2023/06/03 14:15:35;;;;;;;;;;;22.40;33.70;;;;;;5051924;28;19940;-73
2023/06/03 14:18:01;;;;;;;;;;;22.40;33.90;;;;;;5050372;28;19905;-74